sensor_id;sensor_type;location;lat;lon;timestamp;pressure;altitude;pressure_sealevel;temperature;humidity
22743;BME280;11538;48.884;8.696;2023-05-01T00:01:32;98725.13;;;10.32;100.00
22743;BME280;11538;48.884;8.696;2023-05-01T00:03:59;98722.41;;;10.32;100.00
22743;BME280;11538;48.884;8.696;2023-05-01T00:06:29;98717.09;;;10.27;100.00
22743;BME280;11538;48.884;8.696;2023-05-01T00:08:59;98713.47;;;10.18;100.00
22743;BME280;11538;48.884;8.696;2023-05-01T00:11:25;98710.84;;;10.13;100.00
22743;BME280;11538;48.884;8.696;2023-05-01T00:13:52;98710.44;;;10.05;100.00
22743;BME280;11538;48.884;8.696;2023-05-01T00:16:20;98708.94;;;10.13;100.00
22743;BME280;11538;48.884;8.696;2023-05-01T00:18:49;98704.22;;;10.19;100.00
22743;BME280;11538;48.884;8.696;2023-05-01T00:21:18;98704.22;;;10.19;100.00
22743;BME280;11538;48.884;8.696;2023-05-01T00:23:45;98695.19;;;10.09;100.00
22743;BME280;11538;48.884;8.696;2023-05-01T00:26:12;98689.75;;;10.09;100.00
22743;BME280;11538;48.884;8.696;2023-05-01T00:28:39;98696.38;;;10.03;100.00
22743;BME280;11538;48.884;8.696;2023-05-01T00:31:06;98689.34;;;10.02;100.00
22743;BME280;11538;48.884;8.696;2023-05-01T00:33:33;98684.94;;;10.06;100.00
22743;BME280;11538;48.884;8.696;2023-05-01T00:36:00;98687.03;;;10.09;100.00
22743;BME280;11538;48.884;8.696;2023-05-01T00:38:29;98684.75;;;10.03;100.00
22743;BME280;11538;48.884;8.696;2023-05-01T00:40:56;98675.09;;;10.10;100.00
22743;BME280;11538;48.884;8.696;2023-05-01T00:43:22;98680.41;;;10.02;100.00
22743;BME280;11538;48.884;8.696;2023-05-01T00:45:49;98677.00;;;9.96;100.00
22743;BME280;11538;48.884;8.696;2023-05-01T00:48:17;98676.38;;;9.99;100.00
22743;BME280;11538;48.884;8.696;2023-05-01T00:50:45;98674.28;;;9.96;100.00
22743;BME280;11538;48.884;8.696;2023-05-01T00:53:13;98668.84;;;9.96;100.00
22743;BME280;11538;48.884;8.696;2023-05-01T00:55:41;98674.50;;;10.00;100.00
22743;BME280;11538;48.884;8.696;2023-05-01T00:58:13;98659.84;;;10.01;100.00
22743;BME280;11538;48.884;8.696;2023-05-01T01:00:43;98668.25;;;9.99;100.00
22743;BME280;11538;48.884;8.696;2023-05-01T01:03:10;98664.03;;;9.93;100.00
22743;BME280;11538;48.884;8.696;2023-05-01T01:06:15;98657.38;;;9.85;100.00
22743;BME280;11538;48.884;8.696;2023-05-01T01:08:57;98656.19;;;9.91;100.00
22743;BME280;11538;48.884;8.696;2023-05-01T01:11:48;98660.31;;;9.89;100.00
22743;BME280;11538;48.884;8.696;2023-05-01T01:14:31;98657.78;;;9.92;100.00
22743;BME280;11538;48.884;8.696;2023-05-01T01:17:23;98653.56;;;9.72;100.00
22743;BME280;11538;48.884;8.696;2023-05-01T01:20:18;98650.94;;;9.67;100.00
22743;BME280;11538;48.884;8.696;2023-05-01T01:22:53;98640.78;;;9.59;100.00
22743;BME280;11538;48.884;8.696;2023-05-01T01:28:47;98634.09;;;9.70;100.00
22743;BME280;11538;48.884;8.696;2023-05-01T01:31:28;98635.97;;;9.70;100.00
22743;BME280;11538;48.884;8.696;2023-05-01T01:34:14;98635.06;;;9.60;100.00
22743;BME280;11538;48.884;8.696;2023-05-01T01:36:51;98627.16;;;9.64;100.00
22743;BME280;11538;48.884;8.696;2023-05-01T01:39:45;98634.28;;;9.74;100.00
22743;BME280;11538;48.884;8.696;2023-05-01T01:42:34;98636.13;;;9.78;100.00
22743;BME280;11538;48.884;8.696;2023-05-01T01:45:10;98630.59;;;9.84;100.00
22743;BME280;11538;48.884;8.696;2023-05-01T01:47:41;98629.41;;;9.90;100.00
22743;BME280;11538;48.884;8.696;2023-05-01T01:50:11;98634.41;;;9.83;100.00
22743;BME280;11538;48.884;8.696;2023-05-01T01:52:42;98632.81;;;9.82;100.00
22743;BME280;11538;48.884;8.696;2023-05-01T01:55:16;98632.09;;;9.76;100.00
22743;BME280;11538;48.884;8.696;2023-05-01T01:57:49;98625.28;;;9.78;100.00
22743;BME280;11538;48.884;8.696;2023-05-01T02:00:17;98629.19;;;9.72;100.00
22743;BME280;11538;48.884;8.696;2023-05-01T02:02:46;98627.25;;;9.73;100.00
22743;BME280;11538;48.884;8.696;2023-05-01T02:05:16;98625.75;;;9.66;100.00
22743;BME280;11538;48.884;8.696;2023-05-01T02:07:50;98625.25;;;9.64;100.00
22743;BME280;11538;48.884;8.696;2023-05-01T02:10:21;98618.72;;;9.65;100.00
22743;BME280;11538;48.884;8.696;2023-05-01T02:12:50;98624.13;;;9.65;100.00
22743;BME280;11538;48.884;8.696;2023-05-01T02:15:19;98621.25;;;9.76;100.00
22743;BME280;11538;48.884;8.696;2023-05-01T02:17:49;98613.25;;;9.85;100.00
22743;BME280;11538;48.884;8.696;2023-05-01T02:20:20;98607.94;;;9.93;100.00
22743;BME280;11538;48.884;8.696;2023-05-01T02:22:49;98604.34;;;9.98;100.00
22743;BME280;11538;48.884;8.696;2023-05-01T02:25:18;98610.13;;;9.91;100.00
22743;BME280;11538;48.884;8.696;2023-05-01T02:27:59;98604.03;;;9.86;100.00
22743;BME280;11538;48.884;8.696;2023-05-01T02:30:27;98609.53;;;9.80;100.00
22743;BME280;11538;48.884;8.696;2023-05-01T02:32:58;98607.09;;;9.79;100.00
22743;BME280;11538;48.884;8.696;2023-05-01T02:35:24;98597.97;;;9.75;100.00
22743;BME280;11538;48.884;8.696;2023-05-01T02:37:51;98597.78;;;9.71;100.00
22743;BME280;11538;48.884;8.696;2023-05-01T02:40:18;98598.56;;;9.72;100.00
22743;BME280;11538;48.884;8.696;2023-05-01T02:42:48;98592.06;;;9.73;100.00
22743;BME280;11538;48.884;8.696;2023-05-01T02:45:21;98590.16;;;9.73;100.00
22743;BME280;11538;48.884;8.696;2023-05-01T02:47:53;98590.06;;;9.78;100.00
22743;BME280;11538;48.884;8.696;2023-05-01T02:50:23;98589.38;;;9.87;100.00
22743;BME280;11538;48.884;8.696;2023-05-01T02:52:53;98584.84;;;9.82;100.00
22743;BME280;11538;48.884;8.696;2023-05-01T02:55:20;98582.03;;;9.87;100.00
22743;BME280;11538;48.884;8.696;2023-05-01T02:57:50;98584.66;;;9.92;100.00
22743;BME280;11538;48.884;8.696;2023-05-01T03:00:17;98571.91;;;9.93;100.00
22743;BME280;11538;48.884;8.696;2023-05-01T03:02:45;98574.22;;;9.86;100.00
22743;BME280;11538;48.884;8.696;2023-05-01T03:05:12;98566.88;;;9.86;100.00
22743;BME280;11538;48.884;8.696;2023-05-01T03:07:41;98570.31;;;9.92;100.00
22743;BME280;11538;48.884;8.696;2023-05-01T03:10:08;98572.13;;;9.97;100.00
22743;BME280;11538;48.884;8.696;2023-05-01T03:12:35;98571.31;;;9.96;100.00
22743;BME280;11538;48.884;8.696;2023-05-01T03:15:05;98571.91;;;9.93;100.00
22743;BME280;11538;48.884;8.696;2023-05-01T03:17:32;98565.69;;;9.92;100.00
22743;BME280;11538;48.884;8.696;2023-05-01T03:19:59;98566.91;;;10.00;100.00
22743;BME280;11538;48.884;8.696;2023-05-01T03:22:28;98556.78;;;10.06;100.00
22743;BME280;11538;48.884;8.696;2023-05-01T03:24:58;98555.97;;;10.05;100.00
22743;BME280;11538;48.884;8.696;2023-05-01T03:27:26;98559.66;;;10.09;100.00
22743;BME280;11538;48.884;8.696;2023-05-01T03:29:53;98566.91;;;10.14;100.00
22743;BME280;11538;48.884;8.696;2023-05-01T03:32:20;98562.50;;;10.18;100.00
22743;BME280;11538;48.884;8.696;2023-05-01T03:34:50;98556.25;;;10.18;100.00
22743;BME280;11538;48.884;8.696;2023-05-01T03:37:17;98553.88;;;10.16;100.00
22743;BME280;11538;48.884;8.696;2023-05-01T03:39:44;98567.69;;;10.15;100.00
22743;BME280;11538;48.884;8.696;2023-05-01T03:42:12;98554.34;;;10.04;100.00
22743;BME280;11538;48.884;8.696;2023-05-01T03:44:38;98551.16;;;10.02;100.00
22743;BME280;11538;48.884;8.696;2023-05-01T03:47:05;98551.53;;;10.09;100.00
22743;BME280;11538;48.884;8.696;2023-05-01T03:49:32;98557.06;;;10.04;100.00
22743;BME280;11538;48.884;8.696;2023-05-01T03:52:01;98546.44;;;9.94;100.00
22743;BME280;11538;48.884;8.696;2023-05-01T03:54:31;98546.03;;;9.87;100.00
22743;BME280;11538;48.884;8.696;2023-05-01T03:56:58;98545.31;;;9.81;100.00
22743;BME280;11538;48.884;8.696;2023-05-01T03:59:26;98549.13;;;9.80;100.00
22743;BME280;11538;48.884;8.696;2023-05-01T04:01:52;98547.72;;;9.83;100.00
22743;BME280;11538;48.884;8.696;2023-05-01T04:04:20;98542.72;;;9.90;100.00
22743;BME280;11538;48.884;8.696;2023-05-01T04:06:46;98537.81;;;9.92;100.00
22743;BME280;11538;48.884;8.696;2023-05-01T04:09:15;98542.00;;;9.98;100.00
22743;BME280;11538;48.884;8.696;2023-05-01T04:11:42;98539.03;;;10.00;100.00
22743;BME280;11538;48.884;8.696;2023-05-01T04:14:09;98539.03;;;10.00;100.00
22743;BME280;11538;48.884;8.696;2023-05-01T04:16:35;98540.91;;;9.99;100.00
22743;BME280;11538;48.884;8.696;2023-05-01T04:19:03;98539.63;;;9.97;100.00
22743;BME280;11538;48.884;8.696;2023-05-01T04:21:29;98546.03;;;10.01;100.00
22743;BME280;11538;48.884;8.696;2023-05-01T04:23:56;98544.34;;;10.05;100.00
22743;BME280;11538;48.884;8.696;2023-05-01T04:26:23;98539.41;;;10.07;100.00
22743;BME280;11538;48.884;8.696;2023-05-01T04:28:50;98542.03;;;10.12;100.00
22743;BME280;11538;48.884;8.696;2023-05-01T04:31:17;98542.69;;;10.18;100.00
22743;BME280;11538;48.884;8.696;2023-05-01T04:33:43;98543.19;;;10.20;100.00
22743;BME280;11538;48.884;8.696;2023-05-01T04:36:10;98542.81;;;10.27;100.00
22743;BME280;11538;48.884;8.696;2023-05-01T04:38:37;98547.63;;;10.30;100.00
22743;BME280;11538;48.884;8.696;2023-05-01T04:41:04;98542.97;;;10.30;100.00
22743;BME280;11538;48.884;8.696;2023-05-01T04:43:31;98539.78;;;10.28;100.00
22743;BME280;11538;48.884;8.696;2023-05-01T04:45:58;98543.09;;;10.25;100.00
22743;BME280;11538;48.884;8.696;2023-05-01T04:48:25;98544.31;;;10.19;100.00
22743;BME280;11538;48.884;8.696;2023-05-01T04:50:52;98541.81;;;10.08;100.00
22743;BME280;11538;48.884;8.696;2023-05-01T04:53:20;98542.63;;;10.09;100.00
22743;BME280;11538;48.884;8.696;2023-05-01T04:55:47;98540.81;;;10.04;100.00
22743;BME280;11538;48.884;8.696;2023-05-01T04:58:14;98540.53;;;10.06;100.00
22743;BME280;11538;48.884;8.696;2023-05-01T05:00:41;98540.59;;;10.15;100.00
22743;BME280;11538;48.884;8.696;2023-05-01T05:03:07;98542.19;;;10.16;100.00
22743;BME280;11538;48.884;8.696;2023-05-01T05:05:35;98545.72;;;10.16;100.00
22743;BME280;11538;48.884;8.696;2023-05-01T05:08:02;98548.50;;;10.25;100.00
22743;BME280;11538;48.884;8.696;2023-05-01T05:10:28;98550.34;;;10.30;100.00
22743;BME280;11538;48.884;8.696;2023-05-01T05:12:55;98548.41;;;10.30;100.00
22743;BME280;11538;48.884;8.696;2023-05-01T05:15:22;98548.28;;;10.35;100.00
22743;BME280;11538;48.884;8.696;2023-05-01T05:17:50;98551.22;;;10.39;100.00
22743;BME280;11538;48.884;8.696;2023-05-01T05:20:22;98547.31;;;10.45;100.00
22743;BME280;11538;48.884;8.696;2023-05-01T05:22:49;98547.50;;;10.49;100.00
22743;BME280;11538;48.884;8.696;2023-05-01T05:25:16;98553.63;;;10.55;100.00
22743;BME280;11538;48.884;8.696;2023-05-01T05:27:42;98547.38;;;10.54;100.00
22743;BME280;11538;48.884;8.696;2023-05-01T05:30:10;98554.22;;;10.51;100.00
22743;BME280;11538;48.884;8.696;2023-05-01T05:32:37;98553.84;;;10.44;100.00
22743;BME280;11538;48.884;8.696;2023-05-01T05:35:05;98553.94;;;10.39;100.00
22743;BME280;11538;48.884;8.696;2023-05-01T05:37:32;98552.63;;;10.36;100.00
22743;BME280;11538;48.884;8.696;2023-05-01T05:39:59;98552.25;;;10.43;100.00
22743;BME280;11538;48.884;8.696;2023-05-01T05:42:26;98555.63;;;10.49;100.00
22743;BME280;11538;48.884;8.696;2023-05-01T05:44:52;98554.22;;;10.51;100.00
22743;BME280;11538;48.884;8.696;2023-05-01T05:47:23;98551.69;;;10.55;100.00
22743;BME280;11538;48.884;8.696;2023-05-01T05:49:49;98549.06;;;10.64;100.00
22743;BME280;11538;48.884;8.696;2023-05-01T05:52:16;98541.63;;;10.70;100.00
22743;BME280;11538;48.884;8.696;2023-05-01T05:54:43;98545.34;;;10.74;100.00
22743;BME280;11538;48.884;8.696;2023-05-01T05:57:13;98540.28;;;10.81;100.00
22743;BME280;11538;48.884;8.696;2023-05-01T05:59:39;98546.59;;;10.90;100.00
22743;BME280;11538;48.884;8.696;2023-05-01T06:02:06;98550.28;;;10.94;100.00
22743;BME280;11538;48.884;8.696;2023-05-01T06:04:33;98548.69;;;10.93;100.00
22743;BME280;11538;48.884;8.696;2023-05-01T06:07:00;98549.56;;;11.03;100.00
22743;BME280;11538;48.884;8.696;2023-05-01T06:09:27;98552.31;;;11.11;100.00
22743;BME280;11538;48.884;8.696;2023-05-01T06:11:54;98555.38;;;11.19;100.00
22743;BME280;11538;48.884;8.696;2023-05-01T06:14:21;98547.75;;;11.21;100.00
22743;BME280;11538;48.884;8.696;2023-05-01T06:16:48;98552.88;;;11.22;100.00
22743;BME280;11538;48.884;8.696;2023-05-01T06:19:14;98548.91;;;11.29;100.00
22743;BME280;11538;48.884;8.696;2023-05-01T06:21:41;98552.00;;;11.36;100.00
22743;BME280;11538;48.884;8.696;2023-05-01T06:24:08;98552.97;;;11.40;100.00
22743;BME280;11538;48.884;8.696;2023-05-01T06:26:35;98551.25;;;11.44;100.00
22743;BME280;11538;48.884;8.696;2023-05-01T06:29:02;98549.50;;;11.48;100.00
22743;BME280;11538;48.884;8.696;2023-05-01T06:31:29;98538.84;;;11.52;100.00
22743;BME280;11538;48.884;8.696;2023-05-01T06:33:56;98541.41;;;11.57;100.00
22743;BME280;11538;48.884;8.696;2023-05-01T06:36:26;98549.72;;;11.61;100.00
22743;BME280;11538;48.884;8.696;2023-05-01T06:38:53;98545.47;;;11.68;99.98
22743;BME280;11538;48.884;8.696;2023-05-01T06:41:20;98547.91;;;11.79;99.31
22743;BME280;11538;48.884;8.696;2023-05-01T06:43:47;98544.72;;;11.85;99.36
22743;BME280;11538;48.884;8.696;2023-05-01T06:46:14;98550.34;;;11.89;99.17
22743;BME280;11538;48.884;8.696;2023-05-01T06:48:41;98551.59;;;11.92;99.21
22743;BME280;11538;48.884;8.696;2023-05-01T06:51:08;98551.00;;;11.95;99.07
22743;BME280;11538;48.884;8.696;2023-05-01T06:53:35;98554.50;;;11.95;98.11
22743;BME280;11538;48.884;8.696;2023-05-01T06:56:03;98556.59;;;11.98;99.73
22743;BME280;11538;48.884;8.696;2023-05-01T06:58:30;98554.09;;;12.02;99.30
22743;BME280;11538;48.884;8.696;2023-05-01T07:00:56;98556.97;;;12.06;99.19
22743;BME280;11538;48.884;8.696;2023-05-01T07:03:24;98560.69;;;12.19;99.47
22743;BME280;11538;48.884;8.696;2023-05-01T07:05:54;98560.56;;;12.24;97.03
22743;BME280;11538;48.884;8.696;2023-05-01T07:08:21;98555.28;;;12.27;97.31
22743;BME280;11538;48.884;8.696;2023-05-01T07:10:50;98558.03;;;12.36;96.18
22743;BME280;11538;48.884;8.696;2023-05-01T07:13:17;98556.41;;;12.44;95.59
22743;BME280;11538;48.884;8.696;2023-05-01T07:15:46;98551.50;;;12.55;95.44
22743;BME280;11538;48.884;8.696;2023-05-01T07:18:13;98560.78;;;12.71;94.55
22743;BME280;11538;48.884;8.696;2023-05-01T07:20:42;98563.03;;;12.78;92.92
22743;BME280;11538;48.884;8.696;2023-05-01T07:23:09;98550.69;;;12.81;92.92
22743;BME280;11538;48.884;8.696;2023-05-01T07:25:36;98552.47;;;12.85;92.38
22743;BME280;11538;48.884;8.696;2023-05-01T07:28:03;98554.69;;;12.92;91.58
22743;BME280;11538;48.884;8.696;2023-05-01T07:30:30;98552.94;;;12.96;91.67
22743;BME280;11538;48.884;8.696;2023-05-01T07:32:58;98551.31;;;12.95;90.59
22743;BME280;11538;48.884;8.696;2023-05-01T07:35:25;98555.81;;;13.00;90.40
22743;BME280;11538;48.884;8.696;2023-05-01T07:37:53;98549.09;;;13.06;90.40
22743;BME280;11538;48.884;8.696;2023-05-01T07:40:20;98552.13;;;13.13;90.39
22743;BME280;11538;48.884;8.696;2023-05-01T07:42:47;98543.94;;;13.22;89.52
22743;BME280;11538;48.884;8.696;2023-05-01T07:45:14;98551.31;;;13.30;89.64
22743;BME280;11538;48.884;8.696;2023-05-01T07:47:41;98546.81;;;13.35;90.39
22743;BME280;11538;48.884;8.696;2023-05-01T07:50:12;98547.28;;;13.37;89.08
22743;BME280;11538;48.884;8.696;2023-05-01T07:52:39;98552.09;;;13.40;88.24
22743;BME280;11538;48.884;8.696;2023-05-01T07:55:07;98545.03;;;13.39;87.27
22743;BME280;11538;48.884;8.696;2023-05-01T07:57:34;98536.38;;;13.45;87.99
22743;BME280;11538;48.884;8.696;2023-05-01T08:00:02;98540.72;;;13.47;88.08
22743;BME280;11538;48.884;8.696;2023-05-01T08:02:28;98542.78;;;13.50;88.55
22743;BME280;11538;48.884;8.696;2023-05-01T08:04:58;98545.19;;;13.51;87.16
22743;BME280;11538;48.884;8.696;2023-05-01T08:07:25;98546.78;;;13.52;86.40
22743;BME280;11538;48.884;8.696;2023-05-01T08:09:52;98548.06;;;13.55;85.10
22743;BME280;11538;48.884;8.696;2023-05-01T08:12:19;98540.53;;;13.52;84.12
22743;BME280;11538;48.884;8.696;2023-05-01T08:14:46;98544.56;;;13.54;83.89
22743;BME280;11538;48.884;8.696;2023-05-01T08:17:13;98537.44;;;13.62;82.93
22743;BME280;11538;48.884;8.696;2023-05-01T08:19:40;98545.63;;;13.71;82.59
22743;BME280;11538;48.884;8.696;2023-05-01T08:22:07;98546.38;;;13.80;82.44
22743;BME280;11538;48.884;8.696;2023-05-01T08:24:34;98544.91;;;13.83;81.63
22743;BME280;11538;48.884;8.696;2023-05-01T08:27:01;98545.84;;;13.87;81.43
22743;BME280;11538;48.884;8.696;2023-05-01T08:29:28;98551.31;;;13.87;81.08
22743;BME280;11538;48.884;8.696;2023-05-01T08:31:57;98547.91;;;13.99;81.27
22743;BME280;11538;48.884;8.696;2023-05-01T08:34:24;98547.06;;;14.07;79.84
22743;BME280;11538;48.884;8.696;2023-05-01T08:36:51;98546.84;;;14.21;80.34
22743;BME280;11538;48.884;8.696;2023-05-01T08:39:18;98548.50;;;14.35;79.25
22743;BME280;11538;48.884;8.696;2023-05-01T08:41:45;98545.19;;;14.50;77.56
22743;BME280;11538;48.884;8.696;2023-05-01T08:44:16;98544.44;;;14.71;75.71
22743;BME280;11538;48.884;8.696;2023-05-01T08:49:41;98542.28;;;15.31;70.54
22743;BME280;11538;48.884;8.696;2023-05-01T08:52:14;98543.06;;;15.78;69.10
22743;BME280;11538;48.884;8.696;2023-05-01T08:54:43;98537.63;;;16.28;67.38
22743;BME280;11538;48.884;8.696;2023-05-01T08:57:14;98543.25;;;16.72;67.29
22743;BME280;11538;48.884;8.696;2023-05-01T08:59:43;98536.81;;;17.21;67.12
22743;BME280;11538;48.884;8.696;2023-05-01T09:02:14;98537.47;;;17.47;62.84
22743;BME280;11538;48.884;8.696;2023-05-01T09:04:42;98541.97;;;17.39;63.59
22743;BME280;11538;48.884;8.696;2023-05-01T09:07:10;98539.41;;;17.30;63.33
22743;BME280;11538;48.884;8.696;2023-05-01T09:09:37;98541.97;;;17.10;63.97
22743;BME280;11538;48.884;8.696;2023-05-01T09:12:25;98544.78;;;16.98;66.08
22743;BME280;11538;48.884;8.696;2023-05-01T09:14:56;98549.56;;;16.89;67.28
22743;BME280;11538;48.884;8.696;2023-05-01T09:17:23;98554.09;;;16.69;65.11
22743;BME280;11538;48.884;8.696;2023-05-01T09:19:51;98552.75;;;16.50;66.26
22743;BME280;11538;48.884;8.696;2023-05-01T09:22:19;98547.28;;;16.50;68.48
22743;BME280;11538;48.884;8.696;2023-05-01T09:24:46;98552.41;;;16.51;66.32
22743;BME280;11538;48.884;8.696;2023-05-01T09:27:14;98548.09;;;16.50;67.38
22743;BME280;11538;48.884;8.696;2023-05-01T09:29:45;98553.34;;;16.43;66.94
22743;BME280;11538;48.884;8.696;2023-05-01T09:32:26;98550.59;;;16.43;66.70
22743;BME280;11538;48.884;8.696;2023-05-01T09:35:16;98550.25;;;16.45;66.08
22743;BME280;11538;48.884;8.696;2023-05-01T09:37:49;98542.59;;;16.50;66.88
22743;BME280;11538;48.884;8.696;2023-05-01T09:40:16;98551.06;;;16.45;66.12
22743;BME280;11538;48.884;8.696;2023-05-01T09:42:51;98542.19;;;16.36;65.99
22743;BME280;11538;48.884;8.696;2023-05-01T09:45:19;98548.44;;;16.36;65.16
22743;BME280;11538;48.884;8.696;2023-05-01T09:47:46;98551.16;;;16.61;65.73
22743;BME280;11538;48.884;8.696;2023-05-01T09:50:31;98547.53;;;16.86;66.10
22743;BME280;11538;48.884;8.696;2023-05-01T09:53:04;98545.66;;;17.02;63.82
22743;BME280;11538;48.884;8.696;2023-05-01T09:55:33;98549.50;;;17.14;62.93
22743;BME280;11538;48.884;8.696;2023-05-01T09:58:00;98552.50;;;16.96;62.69
22743;BME280;11538;48.884;8.696;2023-05-01T10:00:27;98548.09;;;16.50;62.81
22743;BME280;11538;48.884;8.696;2023-05-01T10:02:56;98548.34;;;16.33;64.99
22743;BME280;11538;48.884;8.696;2023-05-01T10:05:23;98552.56;;;16.30;66.97
22743;BME280;11538;48.884;8.696;2023-05-01T10:08:00;98548.78;;;16.35;68.29
22743;BME280;11538;48.884;8.696;2023-05-01T10:10:28;98550.72;;;16.34;68.03
22743;BME280;11538;48.884;8.696;2023-05-01T10:12:55;98551.41;;;16.31;67.41
22743;BME280;11538;48.884;8.696;2023-05-01T10:15:22;98555.06;;;16.23;67.45
22743;BME280;11538;48.884;8.696;2023-05-01T10:17:54;98555.66;;;16.16;68.15
22743;BME280;11538;48.884;8.696;2023-05-01T10:20:21;98548.69;;;16.06;68.42
22743;BME280;11538;48.884;8.696;2023-05-01T10:22:48;98550.19;;;15.91;68.78
22743;BME280;11538;48.884;8.696;2023-05-01T10:25:16;98545.63;;;15.96;72.02
22743;BME280;11538;48.884;8.696;2023-05-01T10:27:43;98549.38;;;16.03;71.27
22743;BME280;11538;48.884;8.696;2023-05-01T10:30:11;98550.97;;;16.04;70.33
22743;BME280;11538;48.884;8.696;2023-05-01T10:32:40;98553.38;;;16.06;71.04
22743;BME280;11538;48.884;8.696;2023-05-01T10:35:14;98549.97;;;16.09;70.99
22743;BME280;11538;48.884;8.696;2023-05-01T10:37:57;98545.50;;;16.17;71.65
22743;BME280;11538;48.884;8.696;2023-05-01T10:40:48;98556.09;;;16.43;73.18
22743;BME280;11538;48.884;8.696;2023-05-01T10:43:22;98553.66;;;16.66;72.74
22743;BME280;11538;48.884;8.696;2023-05-01T10:51:21;98558.59;;;16.89;69.51
22743;BME280;11538;48.884;8.696;2023-05-01T10:59:05;98556.94;;;17.13;68.45
22743;BME280;11538;48.884;8.696;2023-05-01T11:01:44;98554.28;;;17.17;67.23
22743;BME280;11538;48.884;8.696;2023-05-01T11:09:40;98550.59;;;18.02;65.04
22743;BME280;11538;48.884;8.696;2023-05-01T11:12:14;98537.81;;;18.61;62.82
22743;BME280;11538;48.884;8.696;2023-05-01T11:17:55;98529.69;;;19.70;57.69
22743;BME280;11538;48.884;8.696;2023-05-01T11:22:54;98534.53;;;20.00;57.98
22743;BME280;11538;48.884;8.696;2023-05-01T11:25:27;98531.50;;;19.86;58.13
22743;BME280;11538;48.884;8.696;2023-05-01T11:27:59;98535.94;;;19.67;57.93
22743;BME280;11538;48.884;8.696;2023-05-01T11:30:36;98533.84;;;19.37;58.68
22743;BME280;11538;48.884;8.696;2023-05-01T11:33:04;98529.38;;;19.29;60.85
22743;BME280;11538;48.884;8.696;2023-05-01T11:35:33;98523.53;;;19.11;59.08
22743;BME280;11538;48.884;8.696;2023-05-01T11:38:00;98516.53;;;19.13;59.80
22743;BME280;11538;48.884;8.696;2023-05-01T11:40:30;98526.56;;;19.25;61.33
22743;BME280;11538;48.884;8.696;2023-05-01T11:43:03;98516.13;;;18.95;59.67
22743;BME280;11538;48.884;8.696;2023-05-01T11:45:35;98528.13;;;18.87;60.23
22743;BME280;11538;48.884;8.696;2023-05-01T11:48:03;98516.69;;;19.01;61.60
22743;BME280;11538;48.884;8.696;2023-05-01T11:50:33;98507.03;;;19.31;59.37
22743;BME280;11538;48.884;8.696;2023-05-01T11:53:03;98515.31;;;19.34;59.07
22743;BME280;11538;48.884;8.696;2023-05-01T11:55:38;98513.63;;;19.49;59.28
22743;BME280;11538;48.884;8.696;2023-05-01T11:58:06;98515.94;;;19.47;60.01
22743;BME280;11538;48.884;8.696;2023-05-01T12:00:36;98515.56;;;19.25;60.10
22743;BME280;11538;48.884;8.696;2023-05-01T12:03:13;98514.50;;;19.10;62.38
22743;BME280;11538;48.884;8.696;2023-05-01T12:05:43;98509.41;;;18.93;61.72
22743;BME280;11538;48.884;8.696;2023-05-01T12:08:19;98508.28;;;18.74;62.56
22743;BME280;11538;48.884;8.696;2023-05-01T12:10:55;98502.84;;;18.58;62.86
22743;BME280;11538;48.884;8.696;2023-05-01T12:13:24;98507.31;;;18.47;63.43
22743;BME280;11538;48.884;8.696;2023-05-01T12:15:55;98508.03;;;18.44;65.14
22743;BME280;11538;48.884;8.696;2023-05-01T12:18:23;98502.59;;;18.47;65.35
22743;BME280;11538;48.884;8.696;2023-05-01T12:20:52;98502.72;;;18.35;64.69
22743;BME280;11538;48.884;8.696;2023-05-01T12:23:31;98492.69;;;18.23;66.13
22743;BME280;11538;48.884;8.696;2023-05-01T12:25:59;98503.22;;;18.21;64.97
22743;BME280;11538;48.884;8.696;2023-05-01T12:28:27;98500.47;;;18.21;64.28
22743;BME280;11538;48.884;8.696;2023-05-01T12:31:00;98508.16;;;18.31;63.75
22743;BME280;11538;48.884;8.696;2023-05-01T12:33:31;98498.59;;;18.61;63.10
22743;BME280;11538;48.884;8.696;2023-05-01T12:36:08;98505.97;;;18.76;62.02
22743;BME280;11538;48.884;8.696;2023-05-01T12:38:38;98506.25;;;18.91;61.04
22743;BME280;11538;48.884;8.696;2023-05-01T12:41:05;98507.38;;;19.29;59.59
22743;BME280;11538;48.884;8.696;2023-05-01T12:43:36;98511.56;;;20.77;54.58
22743;BME280;11538;48.884;8.696;2023-05-01T12:46:04;98509.69;;;22.05;50.21
22743;BME280;11538;48.884;8.696;2023-05-01T12:48:32;98504.66;;;20.87;52.16
22743;BME280;11538;48.884;8.696;2023-05-01T12:50:59;98499.28;;;20.10;54.90
22743;BME280;11538;48.884;8.696;2023-05-01T12:53:28;98498.50;;;19.39;56.72
22743;BME280;11538;48.884;8.696;2023-05-01T12:55:57;98502.56;;;19.03;58.46
22743;BME280;11538;48.884;8.696;2023-05-01T12:58:35;98491.34;;;18.92;59.53
22743;BME280;11538;48.884;8.696;2023-05-01T13:01:03;98494.31;;;18.63;59.84
22743;BME280;11538;48.884;8.696;2023-05-01T13:03:32;98496.75;;;18.49;60.94
22743;BME280;11538;48.884;8.696;2023-05-01T13:06:03;98496.88;;;18.36;61.34
22743;BME280;11538;48.884;8.696;2023-05-01T13:08:35;98494.06;;;18.33;62.71
22743;BME280;11538;48.884;8.696;2023-05-01T13:11:14;98494.84;;;18.33;62.09
22743;BME280;11538;48.884;8.696;2023-05-01T13:13:43;98494.63;;;18.42;63.19
22743;BME280;11538;48.884;8.696;2023-05-01T13:16:13;98503.91;;;18.53;60.74
22743;BME280;11538;48.884;8.696;2023-05-01T13:21:12;98490.81;;;19.49;58.26
22743;BME280;11538;48.884;8.696;2023-05-01T13:23:55;98495.28;;;20.04;56.79
22743;BME280;11538;48.884;8.696;2023-05-01T13:26:31;98487.09;;;19.61;58.36
22743;BME280;11538;48.884;8.696;2023-05-01T13:29:00;98489.50;;;19.19;61.43
22743;BME280;11538;48.884;8.696;2023-05-01T13:31:29;98485.47;;;18.74;64.55
22743;BME280;11538;48.884;8.696;2023-05-01T13:33:59;98481.06;;;18.49;68.58
22743;BME280;11538;48.884;8.696;2023-05-01T13:36:30;98492.59;;;18.39;70.42
22743;BME280;11538;48.884;8.696;2023-05-01T13:39:01;98490.44;;;18.48;73.95
22743;BME280;11538;48.884;8.696;2023-05-01T13:41:32;98480.28;;;19.08;75.25